Portada
METAR-TAF:

METAR-TAF

Aeroports :

Hyakuri, Japó

latitud: 36-11N, longitud: 140-25E, altitud: 32 m

Observació

L'informe es va fer fa 27 minuts, a les 10:00 UTC
Vent 2 kt del Nord/Nord-Est
Temperatura 3°C
Humitat 70%
Pressió 1028 hPa
Visibilitat 10 km o més
Escasses núvols a una alçada de 4000 ft
Cel ennuvolat a una alçada de 7000 ft
Cel ennuvolat

METAR: RJAH 251000Z 03002KT 9999 FEW040 BKN070 BKN/// 03/M02 Q1028

Hora: 19:27 (10:27 UTC)

Pronòstic

L'informe es va fer fa 5 hores i 21 minuts, a les 05:06 UTC
Pronòstic vàlid del 25 a les 06 UTC al 26 a les 12 UTC
Vent 5 kt del Est/Sud-Est
Visibilitat 10 km o més
Escasses núvols a una alçada de 3000 ft
Núvols disperses a una alçada de 4000 ft
Evolucionant progressivament
l' 25 a les 09 UTC al 25 a les 11 UTC
Vent 5 kt del Nord

TAF: RJAH 250506Z 2506/2612 12005KT 9999 FEW030 SCT040 BECMG 2509/2511 01005KT

Observacions i pronòstics meteorològics de més de 4000 aeroports (METAR i TAF).

Les estacions disponibles són els punts grocs i vermells al mapa.

Posi el ratolí al punt desitjat per veure el nom de l'estació.

Feu clic per veure les observacions i els pronòstics meteorològics.

Per canviar el mapa: feu clic els botons verds amb una creu de color negre per apropar; al botó verd amb un guió per allunyar la imatge; o en les fletxes verdes per a mapes adjacents.


METAR-TAF: